createdAt,value
2023-04-18T00:01:48.999Z,5.78
2023-04-18T00:04:18.376Z,5.80
2023-04-18T00:06:47.230Z,5.88
2023-04-18T00:09:14.097Z,6.05
2023-04-18T00:11:43.543Z,6.28
2023-04-18T00:14:10.475Z,7.32
2023-04-18T00:16:38.272Z,5.97
2023-04-18T00:19:05.356Z,6.20
2023-04-18T00:21:32.136Z,6.07
2023-04-18T00:23:59.078Z,6.28
2023-04-18T00:26:27.127Z,6.10
2023-04-18T00:28:54.219Z,5.68
2023-04-18T00:31:21.029Z,5.82
2023-04-18T00:33:47.851Z,5.82
2023-04-18T00:36:15.506Z,5.85
2023-04-18T00:38:42.492Z,6.03
2023-04-18T00:41:09.241Z,6.13
2023-04-18T00:43:37.082Z,7.00
2023-04-18T00:46:03.856Z,6.38
2023-04-18T00:48:31.104Z,5.70
2023-04-18T00:50:58.088Z,6.72
2023-04-18T00:53:25.184Z,6.05
2023-04-18T00:55:52.772Z,6.85
2023-04-18T00:58:20.247Z,6.28
2023-04-18T01:00:47.956Z,6.15
2023-04-18T01:03:14.802Z,6.38
2023-04-18T01:05:41.776Z,6.35
2023-04-18T01:08:08.571Z,6.50
2023-04-18T01:10:35.972Z,6.13
2023-04-18T01:13:17.367Z,6.93
2023-04-18T01:15:46.306Z,6.38
2023-04-18T01:18:17.887Z,6.22
2023-04-18T01:23:15.820Z,6.43
2023-04-18T01:25:43.103Z,6.28
2023-04-18T01:28:14.085Z,6.32
2023-04-18T01:30:41.519Z,6.57
2023-04-18T01:33:08.350Z,6.38
2023-04-18T01:35:35.243Z,6.25
2023-04-18T01:38:02.012Z,6.60
2023-04-18T01:40:29.967Z,6.25
2023-04-18T01:42:56.779Z,6.75
2023-04-18T01:45:23.561Z,5.90
2023-04-18T01:47:50.428Z,6.32
2023-04-18T01:50:17.271Z,6.60
2023-04-18T01:52:43.981Z,6.40
2023-04-18T01:55:10.991Z,5.35
2023-04-18T01:57:38.293Z,7.07
2023-04-18T02:00:06.516Z,6.20
2023-04-18T02:02:41.580Z,6.57
2023-04-18T02:05:09.369Z,6.80
2023-04-18T02:07:38.924Z,6.57
2023-04-18T02:10:06.196Z,6.20
2023-04-18T02:12:34.226Z,6.35
2023-04-18T02:15:01.383Z,6.63
2023-04-18T02:17:28.921Z,6.60
2023-04-18T02:19:56.210Z,6.47
2023-04-18T02:22:23.096Z,6.65
2023-04-18T02:24:49.801Z,6.28
2023-04-18T02:27:18.058Z,6.57
2023-04-18T02:29:44.792Z,6.18
2023-04-18T02:32:11.641Z,5.22
2023-04-18T02:34:38.502Z,6.05
2023-04-18T02:37:05.386Z,6.40
2023-04-18T02:39:32.626Z,5.95
2023-04-18T02:41:59.735Z,6.00
2023-04-18T02:44:26.530Z,6.00
2023-04-18T02:46:53.318Z,5.70
2023-04-18T02:49:20.331Z,5.45
2023-04-18T02:51:47.925Z,6.32
2023-04-18T02:54:16.009Z,5.80
2023-04-18T02:57:04.400Z,5.85
2023-04-18T02:59:52.546Z,5.72
2023-04-18T03:02:53.138Z,6.75
2023-04-18T03:05:40.330Z,5.65
2023-04-18T03:08:07.540Z,5.63
2023-04-18T03:10:36.497Z,6.43
2023-04-18T03:13:04.119Z,5.70
2023-04-18T03:15:33.972Z,6.25
2023-04-18T03:18:01.285Z,6.13
2023-04-18T03:20:32.117Z,6.15
2023-04-18T03:22:58.867Z,5.90
2023-04-18T03:25:27.536Z,5.68
2023-04-18T03:27:54.318Z,5.80
2023-04-18T03:30:22.811Z,5.78
2023-04-18T03:32:55.980Z,5.53
2023-04-18T03:35:22.988Z,5.53
2023-04-18T03:37:50.469Z,6.25
2023-04-18T03:40:26.006Z,5.47
2023-04-18T03:42:56.493Z,5.65
2023-04-18T03:45:23.235Z,6.18
2023-04-18T03:47:50.324Z,6.20
2023-04-18T03:50:22.670Z,5.60
2023-04-18T03:52:50.003Z,6.40
2023-04-18T03:55:19.589Z,6.07
2023-04-18T03:57:47.142Z,6.85
2023-04-18T04:00:21.262Z,5.70
2023-04-18T04:02:58.234Z,5.25
2023-04-18T04:05:27.827Z,5.50
2023-04-18T04:07:54.836Z,5.65
2023-04-18T04:10:21.721Z,6.15
2023-04-18T04:12:49.748Z,5.45
2023-04-18T04:15:17.037Z,5.55
2023-04-18T04:17:52.579Z,6.38
2023-04-18T04:20:24.642Z,6.22
2023-04-18T04:23:00.765Z,5.72
2023-04-18T04:25:28.665Z,6.35
2023-04-18T04:28:01.363Z,6.40
2023-04-18T04:30:28.656Z,5.05
2023-04-18T04:32:55.491Z,6.05
2023-04-18T04:35:22.279Z,5.75
2023-04-18T04:37:51.702Z,5.63
2023-04-18T04:40:25.769Z,6.30
2023-04-18T04:42:56.745Z,6.65
2023-04-18T04:45:30.015Z,6.22
2023-04-18T04:47:56.928Z,5.15
2023-04-18T04:50:24.926Z,5.72
2023-04-18T04:52:51.675Z,5.85
2023-04-18T04:55:19.002Z,6.35
2023-04-18T04:57:45.862Z,6.00
2023-04-18T05:00:26.925Z,5.90
2023-04-18T05:02:57.300Z,6.40
2023-04-18T05:05:26.067Z,5.18
2023-04-18T05:07:52.849Z,6.22
2023-04-18T05:10:19.738Z,5.57
2023-04-18T05:12:46.564Z,5.72
2023-04-18T05:15:15.844Z,5.70
2023-04-18T05:17:42.683Z,6.07
2023-04-18T05:20:10.128Z,5.68
2023-04-18T05:22:36.947Z,5.45
2023-04-18T05:25:03.924Z,5.18
2023-04-18T05:27:30.644Z,6.45
2023-04-18T05:29:57.365Z,6.03
2023-04-18T05:32:24.165Z,6.28
2023-04-18T05:34:51.185Z,6.07
2023-04-18T05:37:17.946Z,6.38
2023-04-18T05:39:44.767Z,6.20
2023-04-18T05:42:11.481Z,6.43
2023-04-18T05:44:38.153Z,5.43
2023-04-18T05:47:07.952Z,6.18
2023-04-18T05:49:34.661Z,6.32
2023-04-18T05:52:01.515Z,6.63
2023-04-18T05:54:28.304Z,6.25
2023-04-18T05:56:55.195Z,6.70
2023-04-18T05:59:21.930Z,6.07
2023-04-18T06:01:49.388Z,6.25
2023-04-18T06:04:17.051Z,5.72
2023-04-18T06:06:44.104Z,6.15
2023-04-18T06:09:11.114Z,6.53
2023-04-18T06:11:37.907Z,5.88
2023-04-18T06:14:04.638Z,6.25
2023-04-18T06:16:31.409Z,6.20
2023-04-18T06:19:00.922Z,7.07
2023-04-18T06:21:29.242Z,6.05
2023-04-18T06:23:55.947Z,6.68
2023-04-18T06:26:22.705Z,5.82
2023-04-18T06:28:49.443Z,6.22
2023-04-18T06:31:16.392Z,6.00
2023-04-18T06:33:43.202Z,5.95
2023-04-18T06:36:10.227Z,5.47
2023-04-18T06:38:36.972Z,5.57
2023-04-18T06:41:07.114Z,6.05
2023-04-18T06:43:35.738Z,6.55
2023-04-18T06:46:06.051Z,5.97
2023-04-18T06:48:32.970Z,6.10
2023-04-18T06:51:02.714Z,7.03
2023-04-18T06:53:29.569Z,6.07
2023-04-18T06:55:56.297Z,6.00
2023-04-18T06:58:23.056Z,6.13
2023-04-18T07:00:52.007Z,5.88
2023-04-18T07:03:18.991Z,6.13
2023-04-18T07:05:45.824Z,5.90
2023-04-18T07:08:12.715Z,5.57
2023-04-18T07:10:39.487Z,5.85
2023-04-18T07:13:06.356Z,5.20
2023-04-18T07:15:35.191Z,6.80
2023-04-18T07:18:01.952Z,6.05
2023-04-18T07:20:28.739Z,6.47
2023-04-18T07:22:55.460Z,6.07
2023-04-18T07:25:22.149Z,5.55
2023-04-18T07:27:48.858Z,6.22
2023-04-18T07:30:15.734Z,6.80
2023-04-18T07:32:42.557Z,5.60
2023-04-18T07:35:09.784Z,6.05
2023-04-18T07:37:36.545Z,6.57
2023-04-18T07:40:04.286Z,5.25
2023-04-18T07:42:31.078Z,6.22
2023-04-18T07:44:58.911Z,6.10
2023-04-18T07:47:29.978Z,5.88
2023-04-18T07:49:57.902Z,5.47
2023-04-18T07:52:24.680Z,6.53
2023-04-18T07:54:51.385Z,6.03
2023-04-18T07:57:18.142Z,5.72
2023-04-18T07:59:44.907Z,6.35
2023-04-18T08:02:11.696Z,5.65
2023-04-18T08:04:38.735Z,5.30
2023-04-18T08:07:05.711Z,6.05
2023-04-18T08:09:32.497Z,5.25
2023-04-18T08:11:59.523Z,6.75
2023-04-18T08:14:26.355Z,5.30
2023-04-18T08:16:53.207Z,5.50
2023-04-18T08:19:19.891Z,5.40
2023-04-18T08:21:49.340Z,5.40
2023-04-18T08:24:16.069Z,5.55
2023-04-18T08:26:42.792Z,5.35
2023-04-18T08:29:09.484Z,5.45
2023-04-18T08:31:36.353Z,6.00
2023-04-18T08:34:04.954Z,5.25
2023-04-18T08:36:31.956Z,5.05
2023-04-18T08:38:58.658Z,5.88
2023-04-18T08:41:26.811Z,4.63
2023-04-18T08:43:55.247Z,5.38
2023-04-18T08:46:23.937Z,5.18
2023-04-18T08:48:51.349Z,5.90
2023-04-18T08:51:18.524Z,5.35
2023-04-18T08:53:45.455Z,5.35
2023-04-18T08:56:14.597Z,6.30
2023-04-18T08:58:41.580Z,6.00
2023-04-18T09:01:08.805Z,5.75
2023-04-18T09:03:39.089Z,5.00
2023-04-18T09:06:08.416Z,5.97
2023-04-18T09:08:35.543Z,5.10
2023-04-18T09:11:26.017Z,5.95
2023-04-18T09:13:55.940Z,5.82
2023-04-18T09:16:23.663Z,4.78
2023-04-18T09:19:18.453Z,4.97
2023-04-18T09:21:48.914Z,5.00
2023-04-18T09:24:26.961Z,5.30
2023-04-18T09:26:55.827Z,6.05
2023-04-18T09:29:41.039Z,5.53
2023-04-18T09:39:09.226Z,5.80
2023-04-18T09:41:36.010Z,5.28
2023-04-18T09:44:15.848Z,5.07
2023-04-18T09:46:54.989Z,6.05
2023-04-18T09:49:22.699Z,4.63
2023-04-18T09:51:51.841Z,4.55
2023-04-18T09:54:20.091Z,5.03
2023-04-18T09:56:50.624Z,5.28
2023-04-18T09:59:32.901Z,4.90
2023-04-18T10:02:02.159Z,4.78
2023-04-18T10:04:30.960Z,4.70
2023-04-18T10:06:58.712Z,5.70
2023-04-18T10:09:25.885Z,5.47
2023-04-18T10:11:54.529Z,4.97
2023-04-18T10:14:22.622Z,4.97
2023-04-18T10:16:50.601Z,6.05
2023-04-18T10:19:28.430Z,5.38
2023-04-18T10:22:00.994Z,5.75
2023-04-18T10:24:50.013Z,5.07
2023-04-18T10:27:17.854Z,5.00
2023-04-18T10:29:54.481Z,4.03
2023-04-18T10:32:24.187Z,4.25
2023-04-18T10:34:53.499Z,5.40
2023-04-18T10:37:20.337Z,4.50
2023-04-18T10:39:50.404Z,4.15
2023-04-18T10:42:17.942Z,4.68
2023-04-18T10:45:17.024Z,4.55
2023-04-18T10:47:44.013Z,3.95
2023-04-18T10:50:11.820Z,4.65
2023-04-18T10:52:39.092Z,4.30
2023-04-18T10:55:10.946Z,5.07
2023-04-18T10:57:43.072Z,4.32
2023-04-18T11:00:13.627Z,4.88
2023-04-18T11:02:47.612Z,4.88
2023-04-18T11:05:19.843Z,4.00
2023-04-18T11:07:48.655Z,4.90
2023-04-18T11:10:21.528Z,4.22
2023-04-18T11:12:49.073Z,4.10
2023-04-18T11:15:21.993Z,4.50
2023-04-18T11:18:02.872Z,4.40
2023-04-18T11:20:37.346Z,4.07
2023-04-18T11:23:04.168Z,5.95
2023-04-18T11:25:35.071Z,3.70
2023-04-18T11:28:04.368Z,4.75
2023-04-18T11:30:39.398Z,4.45
2023-04-18T11:33:08.357Z,4.50
2023-04-18T11:35:43.403Z,3.85
2023-04-18T11:38:12.406Z,5.25
2023-04-18T11:40:39.663Z,4.10
2023-04-18T11:43:07.565Z,4.28
2023-04-18T11:45:34.578Z,4.40
2023-04-18T11:48:01.626Z,4.38
2023-04-18T11:50:28.417Z,4.03
2023-04-18T11:52:55.886Z,3.55
2023-04-18T11:55:25.061Z,4.00
2023-04-18T11:57:56.862Z,3.75
2023-04-18T12:00:38.600Z,3.33
2023-04-18T12:03:08.118Z,3.13
2023-04-18T12:05:37.534Z,3.42
2023-04-18T12:08:19.160Z,3.25
2023-04-18T12:10:50.704Z,2.95
2023-04-18T12:15:46.462Z,3.17
2023-04-18T12:18:15.304Z,3.08
2023-04-18T12:20:54.050Z,3.47
2023-04-18T12:23:38.296Z,3.35
2023-04-18T12:26:07.227Z,3.17
2023-04-18T12:28:35.490Z,3.25
2023-04-18T12:31:04.183Z,3.53
2023-04-18T12:33:30.965Z,3.42
2023-04-18T12:35:57.882Z,3.08
2023-04-18T12:38:24.779Z,3.38
2023-04-18T12:40:53.860Z,3.03
2023-04-18T12:43:21.240Z,2.95
2023-04-18T12:45:49.533Z,2.65
2023-04-18T12:48:16.341Z,3.78
2023-04-18T12:50:43.165Z,2.65
2023-04-18T12:53:09.925Z,3.15
2023-04-18T12:55:36.973Z,2.88
2023-04-18T12:58:03.847Z,2.72
2023-04-18T13:00:32.789Z,2.83
2023-04-18T13:03:00.942Z,3.35
2023-04-18T13:05:32.986Z,3.35
2023-04-18T13:10:30.999Z,3.33
2023-04-18T13:12:57.783Z,2.80
2023-04-18T13:15:26.223Z,2.88
2023-04-18T13:17:53.303Z,2.65
2023-04-18T13:20:23.001Z,3.05
2023-04-18T13:22:49.710Z,2.15
2023-04-18T13:25:16.768Z,2.55
2023-04-18T13:27:45.123Z,2.50
2023-04-18T13:30:12.201Z,2.45
2023-04-18T13:32:40.835Z,2.40
2023-04-18T13:35:10.307Z,2.75
2023-04-18T13:37:37.984Z,3.00
2023-04-18T13:40:06.558Z,2.72
2023-04-18T13:42:37.490Z,2.63
2023-04-18T13:45:04.720Z,3.03
2023-04-18T13:47:31.578Z,3.08
2023-04-18T13:49:58.480Z,2.95
2023-04-18T13:52:26.107Z,2.65
2023-04-18T13:54:53.157Z,2.70
2023-04-18T13:57:27.252Z,2.88
2023-04-18T14:00:00.632Z,2.50
2023-04-18T14:02:27.774Z,3.10
2023-04-18T14:04:55.129Z,2.88
2023-04-18T14:07:22.108Z,2.30
2023-04-18T14:09:48.949Z,2.15
2023-04-18T14:12:15.719Z,3.00
2023-04-18T14:14:42.779Z,2.60
2023-04-18T14:17:09.730Z,2.60
2023-04-18T14:19:36.422Z,2.10
2023-04-18T14:22:03.255Z,1.83
2023-04-18T14:24:30.112Z,2.15
2023-04-18T14:26:56.888Z,2.10
2023-04-18T14:29:23.637Z,2.20
2023-04-18T14:31:50.606Z,2.55
2023-04-18T14:34:18.162Z,2.50
2023-04-18T14:36:44.861Z,1.92
2023-04-18T14:39:11.793Z,2.30
2023-04-18T14:41:38.650Z,2.50
2023-04-18T14:44:05.802Z,2.42
2023-04-18T14:46:32.614Z,2.45
2023-04-18T14:49:00.130Z,1.95
2023-04-18T14:51:27.655Z,2.15
2023-04-18T14:53:55.535Z,2.38
2023-04-18T14:56:24.275Z,3.13
2023-04-18T14:58:51.123Z,2.50
2023-04-18T15:01:17.842Z,2.53
2023-04-18T15:03:45.601Z,2.28
2023-04-18T15:06:12.592Z,2.10
2023-04-18T15:08:39.310Z,2.10
2023-04-18T15:11:09.442Z,1.95
2023-04-18T15:13:36.465Z,2.40
2023-04-18T15:16:03.422Z,3.00
2023-04-18T15:18:30.337Z,2.22
2023-04-18T15:21:00.611Z,2.45
2023-04-18T15:23:28.050Z,2.65
2023-04-18T15:25:54.849Z,2.30
2023-04-18T15:28:22.980Z,2.78
2023-04-18T15:30:49.753Z,2.30
2023-04-18T15:33:19.000Z,3.00
2023-04-18T15:35:48.294Z,2.50
2023-04-18T15:38:15.193Z,3.17
2023-04-18T15:40:43.429Z,4.60
2023-04-18T15:43:10.318Z,3.65
2023-04-18T15:45:37.399Z,2.83
2023-04-18T15:48:04.384Z,3.10
2023-04-18T15:50:33.831Z,2.70
2023-04-18T15:53:01.873Z,2.88
2023-04-18T15:55:28.623Z,2.92
2023-04-18T15:57:55.552Z,2.95
2023-04-18T16:00:23.249Z,2.03
2023-04-18T16:02:52.741Z,2.75
2023-04-18T16:05:19.532Z,2.65
2023-04-18T16:07:46.468Z,3.10
2023-04-18T16:10:15.273Z,2.90
2023-04-18T16:12:42.459Z,3.10
2023-04-18T16:15:10.238Z,2.88
2023-04-18T16:17:37.844Z,3.45
2023-04-18T16:20:09.239Z,3.28
2023-04-18T16:25:06.594Z,2.72
2023-04-18T16:27:33.706Z,2.70
2023-04-18T16:30:00.650Z,3.15
2023-04-18T16:32:27.443Z,3.10
2023-04-18T16:34:54.261Z,2.88
2023-04-18T16:37:21.133Z,2.50
2023-04-18T16:39:48.147Z,2.92
2023-04-18T16:42:15.785Z,3.28
2023-04-18T16:44:44.789Z,3.10
2023-04-18T16:47:11.767Z,2.65
2023-04-18T16:49:38.888Z,2.75
2023-04-18T16:52:08.457Z,2.47
2023-04-18T16:54:35.362Z,2.30
2023-04-18T16:57:02.865Z,3.42
2023-04-18T16:59:29.608Z,2.95
2023-04-18T17:01:56.494Z,2.85
2023-04-18T17:04:23.512Z,3.13
2023-04-18T17:06:51.989Z,3.42
2023-04-18T17:09:19.796Z,3.00
2023-04-18T17:11:46.537Z,3.05
2023-04-18T17:14:13.676Z,2.95
2023-04-18T17:16:41.814Z,2.83
2023-04-18T17:19:09.756Z,3.40
2023-04-18T17:21:37.329Z,2.92
2023-04-18T17:24:09.180Z,2.83
2023-04-18T17:26:38.096Z,2.85
2023-04-18T17:29:05.416Z,2.70
2023-04-18T17:31:32.824Z,3.08
2023-04-18T17:34:00.673Z,3.20
2023-04-18T17:36:27.778Z,2.58
2023-04-18T17:38:54.627Z,3.20
2023-04-18T17:41:21.951Z,3.03
2023-04-18T17:43:51.039Z,2.88
2023-04-18T17:46:18.173Z,3.15
2023-04-18T17:48:47.344Z,3.20
2023-04-18T17:51:16.232Z,3.03
2023-04-18T17:53:43.268Z,2.50
2023-04-18T17:56:10.107Z,2.92
2023-04-18T17:58:37.027Z,3.28
2023-04-18T18:01:03.805Z,2.75
2023-04-18T18:03:30.959Z,2.38
2023-04-18T18:05:58.310Z,2.58
2023-04-18T18:08:25.728Z,2.47
2023-04-18T18:10:52.516Z,3.20
2023-04-18T18:13:19.282Z,2.75
2023-04-18T18:15:46.273Z,3.35
2023-04-18T18:18:26.744Z,2.75
2023-04-18T18:20:53.457Z,3.38
2023-04-18T18:23:20.210Z,3.20
2023-04-18T18:25:47.151Z,2.90
2023-04-18T18:28:14.059Z,4.20
2023-04-18T18:30:40.792Z,4.35
2023-04-18T18:33:07.714Z,4.28
2023-04-18T18:35:37.487Z,3.72
2023-04-18T18:38:06.101Z,3.58
2023-04-18T18:40:32.928Z,3.88
2023-04-18T18:42:59.728Z,3.97
2023-04-18T18:45:27.380Z,4.03
2023-04-18T18:47:54.271Z,4.18
2023-04-18T18:50:21.186Z,4.32
2023-04-18T18:52:53.719Z,4.85
2023-04-18T18:55:20.616Z,5.05
2023-04-18T18:57:47.337Z,4.28
2023-04-18T19:00:14.565Z,4.20
2023-04-18T19:02:42.029Z,4.13
2023-04-18T19:05:12.866Z,5.10
2023-04-18T19:07:45.399Z,4.28
2023-04-18T19:10:14.246Z,4.25
2023-04-18T19:12:44.787Z,4.57
2023-04-18T19:15:12.996Z,5.13
2023-04-18T19:17:40.249Z,4.90
2023-04-18T19:20:09.381Z,4.35
2023-04-18T19:22:37.554Z,5.28
2023-04-18T19:25:05.955Z,4.65
2023-04-18T19:27:33.410Z,4.97
2023-04-18T19:30:03.417Z,5.40
2023-04-18T19:32:33.808Z,5.22
2023-04-18T19:35:04.532Z,5.22
2023-04-18T19:37:31.829Z,5.40
2023-04-18T19:39:58.624Z,5.18
2023-04-18T19:42:28.485Z,4.85
2023-04-18T19:44:56.380Z,4.95
2023-04-18T19:47:23.099Z,5.35
2023-04-18T19:49:49.815Z,5.22
2023-04-18T19:52:18.333Z,5.65
2023-04-18T19:54:45.137Z,5.18
2023-04-18T19:57:12.032Z,4.90
2023-04-18T19:59:39.343Z,5.55
2023-04-18T20:02:06.738Z,5.35
2023-04-18T20:04:34.286Z,5.55
2023-04-18T20:07:01.422Z,5.70
2023-04-18T20:09:28.483Z,5.05
2023-04-18T20:11:55.584Z,6.03
2023-04-18T20:14:22.322Z,5.22
2023-04-18T20:16:49.706Z,5.28
2023-04-18T20:19:19.488Z,5.20
2023-04-18T20:21:46.202Z,5.50
2023-04-18T20:24:13.643Z,4.85
2023-04-18T20:26:41.184Z,4.72
2023-04-18T20:29:08.227Z,5.72
2023-04-18T20:31:36.261Z,6.13
2023-04-18T20:34:03.062Z,5.32
2023-04-18T20:36:31.048Z,5.20
2023-04-18T20:39:00.159Z,4.72
2023-04-18T20:41:32.628Z,5.88
2023-04-18T20:43:59.924Z,5.53
2023-04-18T20:46:26.738Z,5.38
2023-04-18T20:48:53.568Z,5.13
2023-04-18T20:51:20.407Z,6.03
2023-04-18T20:53:47.255Z,6.00
2023-04-18T20:56:13.985Z,4.88
2023-04-18T20:58:41.893Z,5.50
2023-04-18T21:01:08.719Z,5.15
2023-04-18T21:03:35.883Z,6.72
2023-04-18T21:06:02.822Z,5.57
2023-04-18T21:08:29.809Z,5.03
2023-04-18T21:10:56.595Z,6.47
2023-04-18T21:13:24.166Z,5.60
2023-04-18T21:15:51.954Z,5.85
2023-04-18T21:18:19.154Z,5.63
2023-04-18T21:20:45.927Z,5.75
2023-04-18T21:23:12.727Z,6.20
2023-04-18T21:25:39.607Z,6.00
2023-04-18T21:28:06.546Z,5.53
2023-04-18T21:30:33.600Z,5.95
2023-04-18T21:33:00.440Z,5.57
2023-04-18T21:35:29.631Z,5.75
2023-04-18T21:37:56.954Z,5.35
2023-04-18T21:40:24.508Z,5.78
2023-04-18T21:42:51.844Z,5.85
2023-04-18T21:45:19.056Z,5.60
2023-04-18T21:47:45.852Z,5.28
2023-04-18T21:50:12.834Z,5.60
2023-04-18T21:52:39.604Z,5.72
2023-04-18T21:55:06.533Z,5.70
2023-04-18T21:57:33.275Z,5.40
2023-04-18T22:00:00.196Z,5.95
2023-04-18T22:02:27.413Z,5.75
2023-04-18T22:04:54.376Z,5.22
2023-04-18T22:07:21.683Z,5.53
2023-04-18T22:09:48.724Z,4.85
2023-04-18T22:12:15.700Z,5.60
2023-04-18T22:14:47.717Z,5.90
2023-04-18T22:17:14.495Z,5.82
2023-04-18T22:19:41.607Z,4.38
2023-04-18T22:22:08.336Z,5.50
2023-04-18T22:24:35.203Z,5.13
2023-04-18T22:27:02.799Z,6.05
2023-04-18T22:29:29.501Z,5.10
2023-04-18T22:31:56.235Z,5.15
2023-04-18T22:34:23.019Z,4.55
2023-04-18T22:36:49.977Z,4.47
2023-04-18T22:39:16.735Z,5.28
2023-04-18T22:41:43.497Z,5.28
2023-04-18T22:44:10.242Z,4.80
2023-04-18T22:46:38.575Z,5.25
2023-04-18T22:49:05.637Z,5.22
2023-04-18T22:51:32.591Z,5.43
2023-04-18T22:53:59.317Z,5.30
2023-04-18T22:56:26.121Z,5.40
2023-04-18T22:58:53.000Z,4.95
2023-04-18T23:01:19.814Z,5.30
2023-04-18T23:03:46.713Z,5.85
2023-04-18T23:06:13.628Z,4.50
2023-04-18T23:08:40.534Z,5.40
2023-04-18T23:11:07.426Z,5.60
2023-04-18T23:13:34.152Z,5.40
2023-04-18T23:16:00.977Z,5.70
2023-04-18T23:18:34.060Z,5.50
2023-04-18T23:21:01.038Z,5.40
2023-04-18T23:23:27.772Z,5.00
2023-04-18T23:25:55.589Z,6.90
2023-04-18T23:28:22.506Z,5.25
2023-04-18T23:30:50.235Z,5.13
2023-04-18T23:33:16.990Z,5.45
2023-04-18T23:35:44.013Z,5.47
2023-04-18T23:38:11.086Z,4.95
2023-04-18T23:40:37.938Z,5.93
2023-04-18T23:43:04.763Z,5.20
2023-04-18T23:45:31.695Z,5.55
2023-04-18T23:47:58.721Z,5.90
2023-04-18T23:50:25.578Z,4.88
2023-04-18T23:52:52.584Z,6.18
2023-04-18T23:55:19.348Z,6.47
2023-04-18T23:57:46.133Z,5.82
